createdAt,value
2022-09-20T00:00:13.859Z,13.30
2022-09-20T00:05:16.471Z,13.25
2022-09-20T00:10:22.329Z,13.29
2022-09-20T00:15:25.269Z,13.30
2022-09-20T00:20:27.974Z,13.33
2022-09-20T00:25:31.904Z,13.38
2022-09-20T00:30:35.482Z,13.36
2022-09-20T00:35:38.025Z,13.39
2022-09-20T00:40:42.533Z,13.30
2022-09-20T00:45:49.991Z,13.27
2022-09-20T00:50:57.070Z,13.12
2022-09-20T00:56:04.690Z,13.24
2022-09-20T01:01:07.661Z,13.24
2022-09-20T01:06:14.557Z,13.26
2022-09-20T01:11:19.029Z,13.20
2022-09-20T01:16:23.087Z,13.17
2022-09-20T01:21:27.144Z,13.08
2022-09-20T01:27:08.564Z,13.03
2022-09-20T01:32:17.344Z,12.92
2022-09-20T01:37:26.186Z,12.83
2022-09-20T01:42:34.123Z,12.81
2022-09-20T01:47:47.097Z,12.78
2022-09-20T01:53:10.011Z,12.83
2022-09-20T01:58:43.199Z,12.81
2022-09-20T02:04:16.695Z,12.88
2022-09-20T02:09:42.291Z,12.95
2022-09-20T02:14:55.918Z,13.05
2022-09-20T02:20:31.580Z,13.12
2022-09-20T02:25:53.423Z,13.18
2022-09-20T02:31:05.841Z,13.13
2022-09-20T02:36:29.159Z,13.08
2022-09-20T02:41:51.071Z,13.16
2022-09-20T02:47:00.032Z,13.22
2022-09-20T02:52:11.958Z,13.10
2022-09-20T02:57:20.484Z,13.04
2022-09-20T03:02:28.691Z,12.92
2022-09-20T03:07:40.729Z,12.85
2022-09-20T03:12:53.336Z,12.83
2022-09-20T03:18:07.991Z,12.84
2022-09-20T03:23:30.911Z,12.85
2022-09-20T03:28:54.455Z,12.82
2022-09-20T03:34:08.890Z,12.84
2022-09-20T03:39:47.132Z,12.88
2022-09-20T03:45:21.644Z,12.93
2022-09-20T03:50:38.972Z,12.94
2022-09-20T03:56:19.029Z,12.98
2022-09-20T04:01:40.230Z,12.98
2022-09-20T04:06:59.290Z,13.01
2022-09-20T04:12:10.592Z,13.03
2022-09-20T04:17:25.348Z,13.14
2022-09-20T04:22:30.311Z,13.20
2022-09-20T04:27:40.159Z,13.23
2022-09-20T04:32:48.835Z,13.29
2022-09-20T04:37:52.756Z,13.31
2022-09-20T04:43:27.303Z,13.23
2022-09-20T04:49:12.699Z,13.29
2022-09-20T04:54:59.844Z,13.30
2022-09-20T05:00:08.591Z,13.32
2022-09-20T05:05:55.944Z,13.28
2022-09-20T05:11:25.625Z,13.25
2022-09-20T05:16:44.397Z,13.23
2022-09-20T05:21:54.124Z,13.23
2022-09-20T05:27:10.403Z,13.18
2022-09-20T05:32:20.698Z,13.20
2022-09-20T05:37:35.206Z,13.21
2022-09-20T05:42:44.128Z,13.16
2022-09-20T05:47:56.254Z,13.13
2022-09-20T05:53:10.599Z,13.07
2022-09-20T05:58:32.134Z,13.07
2022-09-20T06:03:42.714Z,13.10
2022-09-20T06:09:04.303Z,13.03
2022-09-20T06:14:19.868Z,13.00
2022-09-20T06:19:34.275Z,13.19
2022-09-20T06:24:42.640Z,13.16
2022-09-20T06:29:53.730Z,13.13
2022-09-20T06:35:00.302Z,13.29
2022-09-20T06:40:33.267Z,13.37
2022-09-20T06:45:35.959Z,13.44
2022-09-20T06:50:40.022Z,13.44
2022-09-20T06:55:44.760Z,13.42
2022-09-20T07:00:48.178Z,13.64
2022-09-20T07:05:52.156Z,13.86
2022-09-20T07:10:54.788Z,14.05
2022-09-20T07:16:01.724Z,14.15
2022-09-20T07:21:06.213Z,14.25
2022-09-20T07:26:19.006Z,14.36
2022-09-20T07:31:25.170Z,14.47
2022-09-20T07:36:29.196Z,14.48
2022-09-20T07:41:32.419Z,14.47
2022-09-20T07:46:39.331Z,14.42
2022-09-20T07:51:43.230Z,14.43
2022-09-20T07:56:46.700Z,14.38
2022-09-20T08:01:49.807Z,14.31
2022-09-20T08:06:53.883Z,14.48
2022-09-20T08:11:59.443Z,14.56
2022-09-20T08:17:02.703Z,14.74
2022-09-20T08:22:10.701Z,14.89
2022-09-20T08:27:13.344Z,14.99
2022-09-20T08:32:15.875Z,15.04
2022-09-20T08:37:19.786Z,15.10
2022-09-20T08:42:33.295Z,15.18
2022-09-20T08:47:45.453Z,15.25
2022-09-20T08:52:53.816Z,15.28
2022-09-20T08:57:59.078Z,15.33
2022-09-20T09:03:05.958Z,15.33
2022-09-20T09:08:16.210Z,15.45
2022-09-20T09:13:25.701Z,15.52
2022-09-20T09:18:34.702Z,15.59
2022-09-20T09:23:51.028Z,15.67
2022-09-20T09:29:14.966Z,15.61
2022-09-20T09:34:26.039Z,15.61
2022-09-20T09:39:33.474Z,15.36
2022-09-20T09:44:36.453Z,15.42
2022-09-20T09:49:38.988Z,15.40
2022-09-20T09:54:48.682Z,15.45
2022-09-20T10:00:06.735Z,15.53
2022-09-20T10:05:15.961Z,15.61
2022-09-20T10:10:27.399Z,15.74
2022-09-20T10:15:42.231Z,15.74
2022-09-20T10:20:58.378Z,15.73
2022-09-20T10:26:11.281Z,15.93
2022-09-20T10:31:25.939Z,16.07
2022-09-20T10:36:39.675Z,16.15
2022-09-20T10:42:12.573Z,16.12
2022-09-20T10:47:19.963Z,16.27
2022-09-20T10:52:41.536Z,16.37
2022-09-20T10:57:58.646Z,16.42
2022-09-20T11:03:15.347Z,16.35
2022-09-20T11:08:23.551Z,16.30
2022-09-20T11:13:33.903Z,16.49
2022-09-20T11:18:40.144Z,16.52
2022-09-20T11:23:52.184Z,16.50
2022-09-20T11:29:03.993Z,16.75
2022-09-20T11:34:13.493Z,16.89
2022-09-20T11:39:19.943Z,16.98
2022-09-20T11:44:24.518Z,17.11
2022-09-20T11:49:31.194Z,17.17
2022-09-20T11:55:05.632Z,17.22
2022-09-20T12:00:11.158Z,17.26
2022-09-20T12:05:28.419Z,17.10
2022-09-20T12:10:35.232Z,17.24
2022-09-20T12:15:41.937Z,17.16
2022-09-20T12:21:16.759Z,17.16
2022-09-20T12:26:45.191Z,17.13
2022-09-20T12:31:50.691Z,16.26
2022-09-20T12:37:19.787Z,17.05
2022-09-20T12:42:32.552Z,17.19
2022-09-20T12:47:39.203Z,17.25
2022-09-20T12:52:59.512Z,17.13
2022-09-20T12:58:06.028Z,17.04
2022-09-20T13:03:24.421Z,17.16
2022-09-20T13:08:30.004Z,17.87
2022-09-20T13:13:40.607Z,17.51
2022-09-20T13:18:44.832Z,17.11
2022-09-20T13:23:52.144Z,17.27
2022-09-20T13:28:58.000Z,17.62
2022-09-20T13:34:19.116Z,18.12
2022-09-20T13:39:28.150Z,18.49
2022-09-20T13:44:34.235Z,18.30
2022-09-20T13:49:44.157Z,17.91
2022-09-20T13:54:46.995Z,17.97
2022-09-20T13:59:50.468Z,18.12
2022-09-20T14:04:56.632Z,18.08
2022-09-20T14:10:00.106Z,18.01
2022-09-20T14:15:09.478Z,18.01
2022-09-20T14:20:20.936Z,17.81
2022-09-20T14:25:26.387Z,17.62
2022-09-20T14:30:31.610Z,17.56
2022-09-20T14:35:35.644Z,17.40
2022-09-20T14:40:44.428Z,17.47
2022-09-20T14:45:54.238Z,17.36
2022-09-20T14:51:22.999Z,17.12
2022-09-20T14:56:34.774Z,16.81
2022-09-20T15:01:41.184Z,16.77
2022-09-20T15:06:45.201Z,16.48
2022-09-20T15:11:49.898Z,16.45
2022-09-20T15:16:52.934Z,16.51
2022-09-20T15:21:57.287Z,16.36
2022-09-20T15:26:59.843Z,16.38
2022-09-20T15:32:06.370Z,16.51
2022-09-20T15:37:12.231Z,16.39
2022-09-20T15:42:16.636Z,16.35
2022-09-20T15:47:22.475Z,16.65
2022-09-20T15:52:34.538Z,16.84
2022-09-20T15:57:40.155Z,16.86
2022-09-20T16:02:43.025Z,16.87
2022-09-20T16:07:48.439Z,16.74
2022-09-20T16:12:51.307Z,16.68
2022-09-20T16:18:11.366Z,16.51
2022-09-20T16:23:17.606Z,16.38
2022-09-20T16:28:20.951Z,16.28
2022-09-20T16:33:23.512Z,16.28
2022-09-20T16:38:28.392Z,16.32
2022-09-20T16:43:31.168Z,16.33
2022-09-20T16:48:34.668Z,16.29
2022-09-20T16:53:38.542Z,16.21
2022-09-20T16:58:41.960Z,16.13
2022-09-20T17:03:45.836Z,15.90
2022-09-20T17:08:58.137Z,15.70
2022-09-20T17:14:01.478Z,15.83
2022-09-20T17:19:07.312Z,15.68
2022-09-20T17:24:14.086Z,15.60
2022-09-20T17:29:21.778Z,15.49
2022-09-20T17:34:25.405Z,15.35
2022-09-20T17:39:32.781Z,15.29
2022-09-20T17:44:37.574Z,15.24
2022-09-20T17:49:45.659Z,15.13
2022-09-20T17:54:51.087Z,15.07
2022-09-20T17:59:54.003Z,15.06
2022-09-20T18:04:56.567Z,15.02
2022-09-20T18:10:00.440Z,14.92
2022-09-20T18:15:02.988Z,14.72
2022-09-20T18:20:06.877Z,14.74
2022-09-20T18:25:11.087Z,14.69
2022-09-20T18:30:14.383Z,14.62
2022-09-20T18:35:17.332Z,14.60
2022-09-20T18:40:22.894Z,14.49
2022-09-20T18:45:25.476Z,14.46
2022-09-20T18:50:28.079Z,14.35
2022-09-20T18:55:34.381Z,14.37
2022-09-20T19:00:37.218Z,14.21
2022-09-20T19:05:45.525Z,14.09
2022-09-20T19:10:53.320Z,13.98
2022-09-20T19:16:24.462Z,13.95
2022-09-20T19:21:32.289Z,13.75
2022-09-20T19:26:38.455Z,13.86
2022-09-20T19:31:41.305Z,13.76
2022-09-20T19:36:56.287Z,13.70
2022-09-20T19:42:10.741Z,13.63
2022-09-20T19:47:25.463Z,13.58
2022-09-20T19:52:29.080Z,13.57
2022-09-20T19:57:38.413Z,13.68
2022-09-20T20:02:41.565Z,13.62
2022-09-20T20:07:53.495Z,13.38
2022-09-20T20:13:25.740Z,13.31
2022-09-20T20:18:35.914Z,13.44
2022-09-20T20:23:59.045Z,13.29
2022-09-20T20:29:04.638Z,13.22
2022-09-20T20:34:08.748Z,13.23
2022-09-20T20:39:11.452Z,13.21
2022-09-20T20:44:15.315Z,13.23
2022-09-20T20:49:18.078Z,13.29
2022-09-20T20:54:21.210Z,13.29
2022-09-20T20:59:25.355Z,13.28
2022-09-20T21:04:28.446Z,13.15
2022-09-20T21:09:31.910Z,13.19
2022-09-20T21:14:36.014Z,13.09
2022-09-20T21:19:38.727Z,13.17
2022-09-20T21:24:41.409Z,13.03
2022-09-20T21:29:45.308Z,12.94
2022-09-20T21:34:47.866Z,13.04
2022-09-20T21:39:50.428Z,12.94
2022-09-20T21:44:54.695Z,12.89
2022-09-20T21:49:57.455Z,12.77
2022-09-20T21:55:00.001Z,12.76
2022-09-20T22:00:04.761Z,12.86
2022-09-20T22:05:15.063Z,12.88
2022-09-20T22:10:17.856Z,12.90
2022-09-20T22:15:22.369Z,12.59
2022-09-20T22:20:25.182Z,12.57
2022-09-20T22:25:27.746Z,12.51
2022-09-20T22:30:31.870Z,12.49
2022-09-20T22:35:34.436Z,12.18
2022-09-20T22:40:38.344Z,12.13
2022-09-20T22:45:42.383Z,12.32
2022-09-20T22:50:44.984Z,12.31
2022-09-20T22:55:47.576Z,12.28
2022-09-20T23:00:51.697Z,12.22
2022-09-20T23:05:54.295Z,12.20
2022-09-20T23:11:05.138Z,12.13
2022-09-20T23:16:13.675Z,12.11
2022-09-20T23:21:17.299Z,12.02
2022-09-20T23:26:20.380Z,11.96
2022-09-20T23:31:25.017Z,11.95
2022-09-20T23:36:29.491Z,11.88
2022-09-20T23:41:32.103Z,11.85
2022-09-20T23:46:36.666Z,11.83
2022-09-20T23:51:39.240Z,11.83
2022-09-20T23:56:42.832Z,11.72
